Millers Tavrn, Virginia
Current Conditions -  °F | °C
As of 4:55 PM on Monday 22 Dec 2014 (Local Time) from KXSA Reporting Station
Haze Haze  
Wind Chill: 33°   Ceiling: 400
Heat Index: 38°   Visibility: 3mi
Dew Point: 35°   Wind: 7mph
Humidity: 89%   Direction: 340°NNW
Pressure: 30.12"   Gusts: NA
Location:  37.8283°N, 76.9455°W
Report Text: KXSA 222155Z AUTO 34006KT 3SM BR OVC004 04/02 A3012 RMK AO2 T00350018
Loading
Personal Weather Stations






























Interactive Weather Map New forecast layout! Learn more

10-Day Weather Forecast

Advertisements
Track Severe Weather on mobile